Time;durP1;ratioP1;P1;durP2;ratioP2;P2;SDS_P1;SDS_P2;PMS_P1;PMS_P2;Temp;Humidity;BMP_temperature;BMP_pressure;BME280_temperature;BME280_humidity;BME280_pressure;Samples;Min_cycle;Max_cycle;Signal;HPM_P1;HPM_P2
2023/02/09 00:01:23;;;;;;;21.08;11.25;;;;;;;;;;5049203;28;20194;-66
2023/02/09 00:03:51;;;;;;;21.70;11.63;;;;;;;;;;5045556;28;20219;-66
2023/02/09 00:06:20;;;;;;;20.27;11.48;;;;;;;;;;5059288;28;20211;-66
2023/02/09 00:08:49;;;;;;;21.15;11.32;;;;;;;;;;5059732;28;20287;-66
2023/02/09 00:13:21;;;;;;;22.83;12.88;;;;;;;;;;5060308;28;20295;-66
2023/02/09 00:14:08;;;;;;;26.15;13.45;;;;;;;;;;5059403;28;20271;-66
2023/02/09 00:16:36;;;;;;;20.85;11.55;;;;;;;;;;5060184;28;20207;-66
2023/02/09 00:19:05;;;;;;;24.27;11.80;;;;;;;;;;5040570;28;20292;-66
2023/02/09 00:21:33;;;;;;;22.33;11.77;;;;;;;;;;5041791;28;20708;-66
2023/02/09 00:24:01;;;;;;;18.65;9.88;;;;;;;;;;5058887;28;20228;-67
2023/02/09 00:26:31;;;;;;;16.92;10.23;;;;;;;;;;5055742;28;20670;-67
2023/02/09 00:28:59;;;;;;;22.20;11.85;;;;;;;;;;5044512;28;20197;-66
2023/02/09 00:31:27;;;;;;;24.35;12.93;;;;;;;;;;5042363;28;20265;-66
2023/02/09 00:33:55;;;;;;;22.52;11.13;;;;;;;;;;5056570;28;20276;-66
2023/02/09 00:36:23;;;;;;;20.05;10.13;;;;;;;;;;5050785;28;20402;-66
2023/02/09 00:38:52;;;;;;;20.80;11.10;;;;;;;;;;5060454;28;20256;-66
2023/02/09 00:42:04;;;;;;;36.33;14.60;;;;;;;;;;5048968;28;20284;-66
2023/02/09 00:44:11;;;;;;;30.48;15.30;;;;;;;;;;5039863;28;20209;-66
2023/02/09 00:46:39;;;;;;;30.42;15.15;;;;;;;;;;5041813;28;20531;-66
2023/02/09 00:49:08;;;;;;;31.42;13.85;;;;;;;;;;5041526;28;20300;-66
2023/02/09 00:51:36;;;;;;;26.90;14.65;;;;;;;;;;5042268;28;20279;-66
2023/02/09 00:54:04;;;;;;;30.35;14.15;;;;;;;;;;5058954;28;20256;-66
2023/02/09 00:56:32;;;;;;;34.13;13.73;;;;;;;;;;5056745;28;20272;-66
2023/02/09 00:59:01;;;;;;;32.28;13.95;;;;;;;;;;5044688;28;20285;-66
2023/02/09 01:01:30;;;;;;;25.02;13.00;;;;;;;;;;5042671;28;20253;-66
2023/02/09 01:03:59;;;;;;;32.38;12.70;;;;;;;;;;5061070;28;20264;-66
2023/02/09 01:06:27;;;;;;;23.50;11.55;;;;;;;;;;5059792;28;20260;-66
2023/02/09 01:08:57;;;;;;;21.88;12.27;;;;;;;;;;5060528;28;20268;-66
2023/02/09 01:11:27;;;;;;;23.98;11.73;;;;;;;;;;5061536;28;20273;-66
2023/02/09 01:13:56;;;;;;;17.80;11.00;;;;;;;;;;5056645;28;20324;-66
2023/02/09 01:16:27;;;;;;;23.92;11.52;;;;;;;;;;5040469;28;20265;-66
2023/02/09 01:18:56;;;;;;;23.08;12.65;;;;;;;;;;5041131;28;20268;-66
2023/02/09 01:21:25;;;;;;;19.92;10.88;;;;;;;;;;5041299;28;20296;-65
2023/02/09 01:23:53;;;;;;;20.35;12.38;;;;;;;;;;5041624;28;20308;-66
2023/02/09 01:26:21;;;;;;;23.75;12.07;;;;;;;;;;5041412;28;20316;-65
2023/02/09 01:28:50;;;;;;;24.27;14.27;;;;;;;;;;5041274;28;20279;-65
2023/02/09 01:31:20;;;;;;;23.10;12.10;;;;;;;;;;5041223;28;20296;-65
2023/02/09 01:33:51;;;;;;;33.10;13.18;;;;;;;;;;5040520;28;20268;-65
2023/02/09 01:36:21;;;;;;;23.63;13.20;;;;;;;;;;5046240;28;20624;-66
2023/02/09 01:39:10;;;;;;;24.05;11.27;;;;;;;;;;5050839;28;20235;-65
2023/02/09 01:41:39;;;;;;;26.77;14.23;;;;;;;;;;5059439;28;20291;-65
2023/02/09 01:44:25;;;;;;;26.65;13.90;;;;;;;;;;5040932;28;20268;-66
2023/02/09 01:46:53;;;;;;;25.05;12.73;;;;;;;;;;5040348;28;20299;-66
2023/02/09 01:49:25;;;;;;;19.42;12.07;;;;;;;;;;5040860;28;20288;-66
2023/02/09 01:51:56;;;;;;;21.52;12.80;;;;;;;;;;5041049;28;20685;-65
2023/02/09 01:54:29;;;;;;;21.15;11.82;;;;;;;;;;5044280;28;20317;-65
2023/02/09 01:56:59;;;;;;;24.38;12.40;;;;;;;;;;5060283;28;20268;-66
2023/02/09 01:59:28;;;;;;;23.38;12.32;;;;;;;;;;5060076;28;20260;-65
2023/02/09 02:01:56;;;;;;;23.48;12.43;;;;;;;;;;5060695;28;20256;-66
2023/02/09 02:04:24;;;;;;;19.92;10.65;;;;;;;;;;5045001;28;20264;-66
2023/02/09 02:06:55;;;;;;;23.80;12.15;;;;;;;;;;5054571;28;20271;-65
2023/02/09 02:09:24;;;;;;;29.38;15.02;;;;;;;;;;5061497;28;20276;-67
2023/02/09 02:11:52;;;;;;;21.90;12.35;;;;;;;;;;5050032;28;20288;-66
2023/02/09 02:14:31;;;;;;;20.75;10.80;;;;;;;;;;5040365;28;20253;-66
2023/02/09 02:17:06;;;;;;;21.33;12.90;;;;;;;;;;5038769;28;20280;-66
2023/02/09 02:19:53;;;;;;;21.90;11.68;;;;;;;;;;5055387;28;20248;-66
2023/02/09 02:22:43;;;;;;;26.05;10.52;;;;;;;;;;5055369;28;20356;-66
2023/02/09 02:25:28;;;;;;;21.95;10.93;;;;;;;;;;5043013;28;20280;-66
2023/02/09 02:28:05;;;;;;;18.40;11.73;;;;;;;;;;5045605;28;20245;-66
2023/02/09 02:30:43;;;;;;;19.33;11.18;;;;;;;;;;5041112;28;20615;-66
2023/02/09 02:33:20;;;;;;;24.50;12.18;;;;;;;;;;5052429;28;20271;-66
2023/02/09 02:35:53;;;;;;;19.88;11.05;;;;;;;;;;5059984;28;20338;-66
2023/02/09 02:38:27;;;;;;;25.05;13.25;;;;;;;;;;5060068;28;20189;-66
2023/02/09 02:40:58;;;;;;;23.83;13.07;;;;;;;;;;5060367;28;20275;-66
2023/02/09 02:43:35;;;;;;;22.27;11.70;;;;;;;;;;5048249;28;20256;-66
2023/02/09 02:46:05;;;;;;;24.63;13.18;;;;;;;;;;5059486;28;20287;-66
2023/02/09 02:48:38;;;;;;;20.98;12.02;;;;;;;;;;5045337;28;20272;-66
2023/02/09 02:51:07;;;;;;;21.27;11.63;;;;;;;;;;5040884;28;20245;-66
2023/02/09 02:53:37;;;;;;;22.80;11.35;;;;;;;;;;5039821;28;20263;-66
2023/02/09 02:56:08;;;;;;;22.50;11.60;;;;;;;;;;5039640;28;20347;-66
2023/02/09 02:58:37;;;;;;;20.63;11.88;;;;;;;;;;5056801;28;20271;-66
2023/02/09 03:01:08;;;;;;;18.33;10.32;;;;;;;;;;5052330;28;20296;-66
2023/02/09 03:03:40;;;;;;;21.13;12.30;;;;;;;;;;5050018;28;20201;-66
2023/02/09 03:06:09;;;;;;;19.58;10.05;;;;;;;;;;5058176;28;20231;-66
2023/02/09 03:08:47;;;;;;;23.10;10.90;;;;;;;;;;5038557;28;20284;-66
2023/02/09 03:11:15;;;;;;;23.23;11.88;;;;;;;;;;5041762;28;20540;-66
2023/02/09 03:13:50;;;;;;;17.70;10.45;;;;;;;;;;5049770;28;20284;-66
2023/02/09 03:16:23;;;;;;;23.75;12.27;;;;;;;;;;5038395;28;20318;-66
2023/02/09 03:19:07;;;;;;;23.40;12.57;;;;;;;;;;5057763;28;20722;-66
2023/02/09 03:21:43;;;;;;;21.85;12.57;;;;;;;;;;5058520;28;20459;-66
2023/02/09 03:24:13;;;;;;;24.25;13.02;;;;;;;;;;5061460;28;20296;-66
2023/02/09 03:26:43;;;;;;;23.38;11.68;;;;;;;;;;5044381;28;20613;-66
2023/02/09 03:29:14;;;;;;;21.55;11.88;;;;;;;;;;5043043;28;20268;-66
2023/02/09 03:31:42;;;;;;;24.88;12.57;;;;;;;;;;5057009;28;20275;-66
2023/02/09 03:34:12;;;;;;;20.73;11.82;;;;;;;;;;5061707;28;20291;-66
2023/02/09 03:36:41;;;;;;;19.88;11.70;;;;;;;;;;5061489;28;20314;-66
2023/02/09 03:39:09;;;;;;;20.27;11.35;;;;;;;;;;5062749;28;20283;-67
2023/02/09 03:41:37;;;;;;;23.48;12.70;;;;;;;;;;5061416;28;20291;-66
2023/02/09 03:46:52;;;;;;;29.13;12.90;;;;;;;;;;5042893;28;20288;-66
2023/02/09 03:49:27;;;;;;;27.02;15.45;;;;;;;;;;5042860;28;20284;-66
2023/02/09 03:51:55;;;;;;;33.65;18.00;;;;;;;;;;5043854;28;20287;-66
2023/02/09 03:54:23;;;;;;;21.98;13.80;;;;;;;;;;5041287;28;20284;-66
2023/02/09 03:56:51;;;;;;;29.58;12.82;;;;;;;;;;5041063;28;20301;-65
2023/02/09 03:59:20;;;;;;;27.75;13.63;;;;;;;;;;5040158;28;20296;-66
2023/02/09 04:01:49;;;;;;;24.30;15.00;;;;;;;;;;5040538;28;20288;-65
2023/02/09 04:04:17;;;;;;;31.15;15.93;;;;;;;;;;5055999;28;20287;-65
2023/02/09 04:06:47;;;;;;;23.67;12.48;;;;;;;;;;5061533;28;20303;-66
2023/02/09 04:09:15;;;;;;;27.38;13.73;;;;;;;;;;5061444;28;20269;-67
2023/02/09 04:11:43;;;;;;;23.38;11.90;;;;;;;;;;5063404;28;20283;-66
2023/02/09 04:14:12;;;;;;;21.17;12.30;;;;;;;;;;5062373;28;20271;-66
2023/02/09 04:16:40;;;;;;;30.42;12.88;;;;;;;;;;5062736;28;20276;-66
2023/02/09 04:19:12;;;;;;;27.13;12.50;;;;;;;;;;5062844;28;20257;-66
2023/02/09 04:21:41;;;;;;;27.25;13.48;;;;;;;;;;5065356;28;20264;-66
2023/02/09 04:24:31;;;;;;;29.77;13.50;;;;;;;;;;5063895;28;20304;-66
2023/02/09 04:27:00;;;;;;;22.35;12.52;;;;;;;;;;5061414;28;20261;-66
2023/02/09 04:29:28;;;;;;;22.55;11.05;;;;;;;;;;5060499;28;20264;-66
2023/02/09 04:31:56;;;;;;;19.00;10.70;;;;;;;;;;5058937;28;20276;-66
2023/02/09 04:34:24;;;;;;;30.35;12.88;;;;;;;;;;5058825;28;20256;-66
2023/02/09 04:36:53;;;;;;;26.02;12.15;;;;;;;;;;5062066;28;20659;-66
2023/02/09 04:39:21;;;;;;;24.38;12.27;;;;;;;;;;5062983;28;20288;-66
2023/02/09 04:41:50;;;;;;;24.60;14.65;;;;;;;;;;5063846;28;20279;-66
2023/02/09 04:44:18;;;;;;;25.27;13.40;;;;;;;;;;5064077;28;20279;-66
2023/02/09 04:46:47;;;;;;;36.83;14.63;;;;;;;;;;5061159;28;20651;-66
2023/02/09 04:49:15;;;;;;;30.85;13.95;;;;;;;;;;5058732;28;20626;-66
2023/02/09 04:51:47;;;;;;;33.65;14.90;;;;;;;;;;5042712;28;20273;-67
2023/02/09 04:54:17;;;;;;;31.10;15.63;;;;;;;;;;5044324;28;20268;-67
2023/02/09 04:56:45;;;;;;;30.30;15.35;;;;;;;;;;5042322;28;20308;-67
2023/02/09 05:02:01;;;;;;;32.92;15.68;;;;;;;;;;5041692;28;20289;-67
2023/02/09 05:04:29;;;;;;;34.40;17.63;;;;;;;;;;5048459;28;20307;-67
2023/02/09 05:06:57;;;;;;;34.20;16.02;;;;;;;;;;5062100;28;20299;-67
2023/02/09 05:09:26;;;;;;;35.00;16.15;;;;;;;;;;5050286;28;20715;-67
2023/02/09 05:11:54;;;;;;;42.28;20.08;;;;;;;;;;5041277;28;20288;-67
2023/02/09 05:14:23;;;;;;;49.03;20.42;;;;;;;;;;5041653;28;20261;-67
2023/02/09 05:16:52;;;;;;;48.30;19.85;;;;;;;;;;5040327;28;20280;-66
2023/02/09 05:19:20;;;;;;;38.00;16.20;;;;;;;;;;5040761;28;20293;-66
2023/02/09 05:21:48;;;;;;;33.42;14.85;;;;;;;;;;5052940;28;20256;-66
2023/02/09 05:24:16;;;;;;;34.05;16.38;;;;;;;;;;5057732;28;20311;-66
2023/02/09 05:26:44;;;;;;;37.90;17.90;;;;;;;;;;5055737;28;20227;-67
2023/02/09 05:29:13;;;;;;;38.17;18.55;;;;;;;;;;5040806;28;20276;-66
2023/02/09 05:31:42;;;;;;;24.05;12.10;;;;;;;;;;5040742;28;20264;-66
2023/02/09 05:34:16;;;;;;;19.10;11.05;;;;;;;;;;5041253;28;20292;-66
2023/02/09 05:36:47;;;;;;;26.23;11.93;;;;;;;;;;5042816;28;20465;-66
2023/02/09 05:39:18;;;;;;;19.13;12.15;;;;;;;;;;5043224;28;20281;-66
2023/02/09 05:44:41;;;;;;;26.25;13.13;;;;;;;;;;5005019;28;20287;-66
2023/02/09 05:47:10;;;;;;;26.02;12.70;;;;;;;;;;5038875;28;20288;-66
2023/02/09 05:49:39;;;;;;;28.95;13.57;;;;;;;;;;5038760;28;20288;-66
2023/02/09 05:52:07;;;;;;;21.02;11.25;;;;;;;;;;5043743;28;20717;-66
2023/02/09 05:54:36;;;;;;;20.70;12.48;;;;;;;;;;5059790;28;20283;-67
2023/02/09 05:57:13;;;;;;;26.20;12.32;;;;;;;;;;5043417;28;20278;-67
2023/02/09 05:59:41;;;;;;;28.38;12.23;;;;;;;;;;5052928;28;20203;-67
2023/02/09 06:02:11;;;;;;;23.70;12.23;;;;;;;;;;5052585;28;20323;-66
2023/02/09 06:04:39;;;;;;;29.00;13.88;;;;;;;;;;5038231;28;20321;-67
2023/02/09 06:07:08;;;;;;;29.08;14.20;;;;;;;;;;5043370;28;20615;-67
2023/02/09 06:09:36;;;;;;;22.80;12.52;;;;;;;;;;5041081;28;20201;-67
2023/02/09 06:12:04;;;;;;;22.42;12.77;;;;;;;;;;5047496;28;20202;-66
2023/02/09 06:14:33;;;;;;;25.63;13.10;;;;;;;;;;5044352;28;20204;-67
2023/02/09 06:17:01;;;;;;;21.67;11.65;;;;;;;;;;5037907;28;20607;-66
2023/02/09 06:19:39;;;;;;;27.98;12.32;;;;;;;;;;5036745;28;20205;-67
2023/02/09 06:22:16;;;;;;;29.40;15.10;;;;;;;;;;5038856;28;20253;-67
2023/02/09 06:24:44;;;;;;;26.20;14.20;;;;;;;;;;5045860;28;20262;-66
2023/02/09 06:27:13;;;;;;;26.40;12.68;;;;;;;;;;5048672;28;20768;-67
2023/02/09 06:29:45;;;;;;;24.65;13.82;;;;;;;;;;5044879;28;20208;-66
2023/02/09 06:32:13;;;;;;;25.70;13.65;;;;;;;;;;5036649;28;20281;-67
2023/02/09 06:34:43;;;;;;;26.48;13.60;;;;;;;;;;5049137;28;20253;-68
2023/02/09 06:37:11;;;;;;;29.02;15.07;;;;;;;;;;5057589;28;20782;-68
2023/02/09 06:39:39;;;;;;;25.38;13.68;;;;;;;;;;5051284;28;20300;-67
2023/02/09 06:42:08;;;;;;;28.58;15.18;;;;;;;;;;5056752;28;20264;-68
2023/02/09 06:44:36;;;;;;;38.97;15.10;;;;;;;;;;5047125;28;20205;-67
2023/02/09 06:47:04;;;;;;;33.92;17.33;;;;;;;;;;5056366;28;20229;-68
2023/02/09 06:49:32;;;;;;;29.38;15.57;;;;;;;;;;5039096;28;20219;-66
2023/02/09 06:52:02;;;;;;;33.50;17.02;;;;;;;;;;5055936;28;20295;-66
2023/02/09 06:54:30;;;;;;;31.48;17.08;;;;;;;;;;5039845;28;20276;-66
2023/02/09 06:56:58;;;;;;;32.97;15.25;;;;;;;;;;5055044;28;20276;-66
2023/02/09 06:59:26;;;;;;;30.38;15.07;;;;;;;;;;5057608;28;20714;-66
2023/02/09 07:01:55;;;;;;;22.08;13.45;;;;;;;;;;5039308;28;20204;-66
2023/02/09 07:04:23;;;;;;;26.58;14.90;;;;;;;;;;5048591;28;20865;-67
2023/02/09 07:06:51;;;;;;;29.75;13.77;;;;;;;;;;5039608;28;20316;-67
2023/02/09 07:09:21;;;;;;;27.92;13.77;;;;;;;;;;5036029;28;20208;-68
2023/02/09 07:11:49;;;;;;;23.50;13.70;;;;;;;;;;5035203;28;20204;-68
2023/02/09 07:14:17;;;;;;;24.48;13.27;;;;;;;;;;5044231;28;20207;-68
2023/02/09 07:16:45;;;;;;;28.00;13.60;;;;;;;;;;5058856;28;20627;-68
2023/02/09 07:19:13;;;;;;;25.75;14.93;;;;;;;;;;5055717;28;20342;-68
2023/02/09 07:21:42;;;;;;;36.42;20.75;;;;;;;;;;5047751;28;20201;-67
2023/02/09 07:24:10;;;;;;;33.15;15.55;;;;;;;;;;5037542;28;20304;-67
2023/02/09 07:26:40;;;;;;;31.83;17.08;;;;;;;;;;5039835;28;20209;-67
2023/02/09 07:29:08;;;;;;;25.98;16.17;;;;;;;;;;5047456;28;20244;-68
2023/02/09 07:31:36;;;;;;;30.45;14.82;;;;;;;;;;5054495;28;20256;-69
2023/02/09 07:34:04;;;;;;;25.83;14.23;;;;;;;;;;5056395;28;20204;-69
2023/02/09 07:36:32;;;;;;;26.15;14.50;;;;;;;;;;5037685;28;20220;-69
2023/02/09 07:39:01;;;;;;;23.95;13.68;;;;;;;;;;5040936;28;20252;-68
2023/02/09 07:41:29;;;;;;;33.00;16.23;;;;;;;;;;5039037;28;20216;-69
2023/02/09 07:43:59;;;;;;;92.53;21.15;;;;;;;;;;5058112;28;20284;-68
2023/02/09 07:46:27;;;;;;;27.85;14.60;;;;;;;;;;5046518;28;20294;-69
2023/02/09 07:48:56;;;;;;;29.38;15.55;;;;;;;;;;5051401;28;20272;-67
2023/02/09 07:51:25;;;;;;;30.10;15.00;;;;;;;;;;5046558;28;20233;-66
2023/02/09 07:53:53;;;;;;;34.92;16.08;;;;;;;;;;5060132;28;20205;-66
2023/02/09 07:56:22;;;;;;;31.65;14.10;;;;;;;;;;5054758;28;20222;-66
2023/02/09 07:58:50;;;;;;;25.77;13.30;;;;;;;;;;5074962;28;20279;-66
2023/02/09 08:01:20;;;;;;;27.48;12.35;;;;;;;;;;5082620;28;20283;-67
2023/02/09 08:03:49;;;;;;;28.70;16.48;;;;;;;;;;5067594;28;20276;-66
2023/02/09 08:06:19;;;;;;;24.88;13.60;;;;;;;;;;5066958;28;20204;-66
2023/02/09 08:08:48;;;;;;;32.15;15.85;;;;;;;;;;5056677;28;20266;-66
2023/02/09 08:11:18;;;;;;;29.08;13.90;;;;;;;;;;5071090;28;20210;-66
2023/02/09 08:13:46;;;;;;;27.20;13.43;;;;;;;;;;5065548;28;20661;-66
2023/02/09 08:16:16;;;;;;;32.83;15.32;;;;;;;;;;5057992;28;20296;-67
2023/02/09 08:18:50;;;;;;;26.75;13.95;;;;;;;;;;5059636;28;20291;-68
2023/02/09 08:21:19;;;;;;;28.92;18.60;;;;;;;;;;5069906;28;20284;-68
2023/02/09 08:26:38;;;;;;;30.35;15.93;;;;;;;;;;5074931;28;20217;-68
2023/02/09 08:29:26;;;;;;;27.48;15.02;;;;;;;;;;5084724;28;20283;-68
2023/02/09 08:31:54;;;;;;;31.10;15.65;;;;;;;;;;5061376;28;20338;-68
2023/02/09 08:34:23;;;;;;;26.60;15.27;;;;;;;;;;5060378;28;20201;-68
2023/02/09 08:36:52;;;;;;;26.83;14.45;;;;;;;;;;5064388;28;20239;-68
2023/02/09 08:39:24;;;;;;;29.05;14.85;;;;;;;;;;5068040;28;20203;-69
2023/02/09 08:41:55;;;;;;;29.92;17.02;;;;;;;;;;5040630;28;20276;-69
2023/02/09 08:44:23;;;;;;;27.67;14.55;;;;;;;;;;5067307;28;20537;-68
2023/02/09 08:46:51;;;;;;;28.77;15.98;;;;;;;;;;5059816;28;20208;-68
2023/02/09 08:49:19;;;;;;;23.13;14.75;;;;;;;;;;5062500;28;20261;-69
2023/02/09 08:51:49;;;;;;;31.83;16.63;;;;;;;;;;5083125;28;20200;-68
2023/02/09 08:54:17;;;;;;;27.17;14.65;;;;;;;;;;5071208;28;20738;-68
2023/02/09 08:56:45;;;;;;;30.15;16.23;;;;;;;;;;5050247;28;20205;-68
2023/02/09 08:59:36;;;;;;;32.83;14.93;;;;;;;;;;5051734;28;20675;-66
2023/02/09 09:02:04;;;;;;;28.50;14.77;;;;;;;;;;5051850;28;20682;-66
2023/02/09 09:04:32;;;;;;;31.05;15.85;;;;;;;;;;5061001;28;20212;-67
2023/02/09 09:07:02;;;;;;;25.90;14.68;;;;;;;;;;5064722;28;20211;-67
2023/02/09 09:09:30;;;;;;;33.55;15.60;;;;;;;;;;5073217;28;20220;-67
2023/02/09 09:11:58;;;;;;;23.95;15.23;;;;;;;;;;5050924;28;20200;-67
2023/02/09 09:14:26;;;;;;;26.83;16.20;;;;;;;;;;5051927;28;20202;-68
2023/02/09 09:16:57;;;;;;;26.33;15.35;;;;;;;;;;5061502;28;20248;-67
2023/02/09 09:19:30;;;;;;;39.97;16.30;;;;;;;;;;5063849;28;20208;-68
2023/02/09 09:22:30;;;;;;;32.55;15.90;;;;;;;;;;5059102;28;20224;-68
2023/02/09 09:24:58;;;;;;;25.23;15.85;;;;;;;;;;5045950;28;20199;-68
2023/02/09 09:27:33;;;;;;;34.22;16.92;;;;;;;;;;5066020;28;20275;-67
2023/02/09 09:30:12;;;;;;;28.45;16.50;;;;;;;;;;5069934;28;20212;-68
2023/02/09 09:32:40;;;;;;;32.75;18.67;;;;;;;;;;5058489;28;20201;-69
2023/02/09 09:35:09;;;;;;;31.63;17.63;;;;;;;;;;5057043;28;20214;-68
2023/02/09 09:37:38;;;;;;;31.25;19.00;;;;;;;;;;5076919;28;20283;-67
2023/02/09 09:40:06;;;;;;;33.10;19.17;;;;;;;;;;5079927;28;20211;-67
2023/02/09 09:42:37;;;;;;;32.33;19.67;;;;;;;;;;5067639;28;20208;-67
2023/02/09 09:45:14;;;;;;;33.20;17.35;;;;;;;;;;5068412;28;20242;-67
2023/02/09 09:47:43;;;;;;;33.70;18.95;;;;;;;;;;5071372;28;20287;-68
2023/02/09 09:50:15;;;;;;;32.70;17.65;;;;;;;;;;5071074;28;20275;-68
2023/02/09 09:52:46;;;;;;;38.50;20.50;;;;;;;;;;5065008;28;20189;-68
2023/02/09 09:55:20;;;;;;;36.33;19.02;;;;;;;;;;5065733;28;20659;-68
2023/02/09 09:57:49;;;;;;;31.75;18.95;;;;;;;;;;5074170;28;20286;-68
2023/02/09 10:00:18;;;;;;;32.55;17.23;;;;;;;;;;5078963;28;20284;-67
2023/02/09 10:02:47;;;;;;;48.58;27.92;;;;;;;;;;5076026;28;20210;-67
2023/02/09 10:05:18;;;;;;;28.80;17.50;;;;;;;;;;5066605;28;20204;-67
2023/02/09 10:07:50;;;;;;;30.48;17.58;;;;;;;;;;5053622;28;20565;-67
2023/02/09 10:10:21;;;;;;;33.85;18.88;;;;;;;;;;5060347;28;20209;-67
2023/02/09 10:12:51;;;;;;;35.65;18.50;;;;;;;;;;5043599;28;20205;-67
2023/02/09 10:15:26;;;;;;;30.83;17.02;;;;;;;;;;5043869;28;20200;-67
2023/02/09 10:17:54;;;;;;;34.13;19.60;;;;;;;;;;5069490;28;20203;-68
2023/02/09 10:20:37;;;;;;;28.92;18.60;;;;;;;;;;5074279;28;20227;-69
2023/02/09 10:23:06;;;;;;;36.80;20.20;;;;;;;;;;5070561;28;20220;-67
2023/02/09 10:25:39;;;;;;;34.60;18.60;;;;;;;;;;5054844;28;20197;-67
2023/02/09 10:28:18;;;;;;;32.00;19.90;;;;;;;;;;5076893;28;20196;-67
2023/02/09 10:30:47;;;;;;;30.45;17.88;;;;;;;;;;5077539;28;20337;-67
2023/02/09 10:33:16;;;;;;;35.80;18.80;;;;;;;;;;5071124;28;20794;-68
2023/02/09 10:35:45;;;;;;;32.70;18.85;;;;;;;;;;5054512;28;20683;-68
2023/02/09 10:38:17;;;;;;;35.17;20.50;;;;;;;;;;5061156;28;20387;-68
2023/02/09 10:40:47;;;;;;;34.78;19.40;;;;;;;;;;5059868;28;20200;-67
2023/02/09 10:43:21;;;;;;;36.00;19.42;;;;;;;;;;5061746;28;20260;-68
2023/02/09 10:45:53;;;;;;;28.10;18.25;;;;;;;;;;5051849;28;20299;-67
2023/02/09 10:48:22;;;;;;;32.40;20.45;;;;;;;;;;5060766;28;20261;-67
2023/02/09 10:50:51;;;;;;;35.10;19.15;;;;;;;;;;5069646;28;20261;-67
2023/02/09 10:53:23;;;;;;;28.50;18.05;;;;;;;;;;5071971;28;20244;-68
2023/02/09 10:55:51;;;;;;;31.95;18.65;;;;;;;;;;5064929;28;20207;-67
2023/02/09 10:58:22;;;;;;;32.55;19.15;;;;;;;;;;5060515;28;20579;-67
2023/02/09 11:00:53;;;;;;;31.55;18.83;;;;;;;;;;5038518;28;20554;-67
2023/02/09 11:03:24;;;;;;;24.92;17.08;;;;;;;;;;5036810;28;20197;-67
2023/02/09 11:05:58;;;;;;;37.45;19.90;;;;;;;;;;5044441;28;20189;-67
2023/02/09 11:08:30;;;;;;;33.47;20.23;;;;;;;;;;5052985;28;20711;-67
2023/02/09 11:11:01;;;;;;;39.35;20.25;;;;;;;;;;5042029;28;20202;-67
2023/02/09 11:13:29;;;;;;;30.85;19.30;;;;;;;;;;5043111;28;20197;-67
2023/02/09 11:16:05;;;;;;;33.67;21.35;;;;;;;;;;5042532;28;20210;-65
2023/02/09 11:18:35;;;;;;;48.92;25.50;;;;;;;;;;5050868;28;20223;-66
2023/02/09 11:21:09;;;;;;;32.72;21.70;;;;;;;;;;5052060;28;20596;-66
2023/02/09 11:23:43;;;;;;;33.30;21.70;;;;;;;;;;5042291;28;20228;-66
2023/02/09 11:26:17;;;;;;;42.13;24.05;;;;;;;;;;5035420;28;20189;-67
2023/02/09 11:28:48;;;;;;;33.22;22.17;;;;;;;;;;5041989;28;20644;-66
2023/02/09 11:31:21;;;;;;;29.13;20.13;;;;;;;;;;5040147;28;20633;-66
2023/02/09 11:33:53;;;;;;;29.27;20.02;;;;;;;;;;5040395;28;20201;-66
2023/02/09 11:36:32;;;;;;;30.30;21.23;;;;;;;;;;5046488;28;20240;-66
2023/02/09 11:39:02;;;;;;;29.75;21.92;;;;;;;;;;5042392;28;20200;-66
2023/02/09 11:44:21;;;;;;;30.38;21.77;;;;;;;;;;5044630;28;20193;-66
2023/02/09 11:46:51;;;;;;;26.60;20.90;;;;;;;;;;5035696;28;20193;-67
2023/02/09 11:49:22;;;;;;;31.17;21.70;;;;;;;;;;5043030;28;20591;-66
2023/02/09 11:51:51;;;;;;;30.17;22.40;;;;;;;;;;5043909;28;20204;-66
2023/02/09 11:54:23;;;;;;;33.83;24.48;;;;;;;;;;5050179;28;20580;-67
2023/02/09 11:56:52;;;;;;;35.13;24.77;;;;;;;;;;5038230;28;20203;-66
2023/02/09 11:59:24;;;;;;;31.83;24.10;;;;;;;;;;5042106;28;20648;-66
2023/02/09 12:01:54;;;;;;;32.92;25.20;;;;;;;;;;5053857;28;20231;-66
2023/02/09 12:04:25;;;;;;;35.58;26.02;;;;;;;;;;5053358;28;20254;-66
2023/02/09 12:06:55;;;;;;;36.53;27.48;;;;;;;;;;5055095;28;20188;-66
2023/02/09 12:09:31;;;;;;;32.22;25.15;;;;;;;;;;5053670;28;20221;-66
2023/02/09 12:12:11;;;;;;;32.90;22.80;;;;;;;;;;5051234;28;20195;-66
2023/02/09 12:14:44;;;;;;;31.13;24.75;;;;;;;;;;5047058;28;20201;-66
2023/02/09 12:17:15;;;;;;;29.50;23.77;;;;;;;;;;5038757;28;20191;-66
2023/02/09 12:19:45;;;;;;;35.90;27.13;;;;;;;;;;5049740;28;20190;-66
2023/02/09 12:22:31;;;;;;;27.88;24.08;;;;;;;;;;5034840;28;20201;-72
2023/02/09 12:25:16;;;;;;;30.48;24.92;;;;;;;;;;5040598;28;20604;-66
2023/02/09 12:28:00;;;;;;;33.58;26.17;;;;;;;;;;5054796;28;20201;-66
2023/02/09 12:30:46;;;;;;;37.38;25.75;;;;;;;;;;5044020;28;20219;-67
2023/02/09 12:33:18;;;;;;;33.72;26.90;;;;;;;;;;5034255;28;20555;-66
2023/02/09 12:35:59;;;;;;;34.60;26.77;;;;;;;;;;5042788;28;20185;-66
2023/02/09 12:38:41;;;;;;;27.88;22.38;;;;;;;;;;5052288;28;20199;-66
2023/02/09 12:41:12;;;;;;;26.45;23.50;;;;;;;;;;5048859;28;20200;-66
2023/02/09 12:43:43;;;;;;;34.80;24.23;;;;;;;;;;5034356;28;20287;-66
2023/02/09 12:46:13;;;;;;;29.23;24.10;;;;;;;;;;5042762;28;20207;-67
2023/02/09 12:48:48;;;;;;;25.55;22.88;;;;;;;;;;5054478;28;20211;-66
2023/02/09 12:51:37;;;;;;;34.45;26.17;;;;;;;;;;5052874;28;20216;-67
2023/02/09 12:54:20;;;;;;;31.35;24.58;;;;;;;;;;5044064;28;20574;-66
2023/02/09 12:56:50;;;;;;;29.05;24.80;;;;;;;;;;5055478;28;20214;-66
2023/02/09 12:59:19;;;;;;;30.17;26.02;;;;;;;;;;5047630;28;20201;-67
2023/02/09 13:02:06;;;;;;;29.40;24.20;;;;;;;;;;5048630;28;20219;-66
2023/02/09 13:04:37;;;;;;;29.85;24.60;;;;;;;;;;5053325;28;20204;-66
2023/02/09 13:07:07;;;;;;;29.03;25.17;;;;;;;;;;5036834;28;20559;-67
2023/02/09 13:09:37;;;;;;;29.43;26.30;;;;;;;;;;5047413;28;20602;-67
2023/02/09 13:12:13;;;;;;;30.73;27.37;;;;;;;;;;5035027;28;20604;-67
2023/02/09 13:14:43;;;;;;;31.35;25.25;;;;;;;;;;5040945;28;20605;-66
2023/02/09 13:17:37;;;;;;;31.30;26.17;;;;;;;;;;5046138;28;20521;-67
2023/02/09 13:20:14;;;;;;;29.55;25.50;;;;;;;;;;5039576;28;20603;-67
2023/02/09 13:22:54;;;;;;;27.17;24.23;;;;;;;;;;5047062;28;20217;-67
2023/02/09 13:25:28;;;;;;;31.38;26.30;;;;;;;;;;5044570;28;21200;-66
2023/02/09 13:28:07;;;;;;;28.80;24.23;;;;;;;;;;5042847;28;20238;-66
2023/02/09 13:30:36;;;;;;;31.67;25.50;;;;;;;;;;5046415;28;20232;-67
2023/02/09 13:33:08;;;;;;;30.90;25.33;;;;;;;;;;5046761;28;20203;-67
2023/02/09 13:35:40;;;;;;;27.30;24.30;;;;;;;;;;5044761;28;20190;-66
2023/02/09 13:38:14;;;;;;;32.00;25.67;;;;;;;;;;5042139;28;20224;-67
2023/02/09 13:40:46;;;;;;;52.43;39.30;;;;;;;;;;5036336;28;20190;-67
2023/02/09 13:43:18;;;;;;;56.83;42.23;;;;;;;;;;5037222;28;20974;-66
2023/02/09 13:45:47;;;;;;;111.05;67.20;;;;;;;;;;5047253;28;20573;-66
2023/02/09 13:48:22;;;;;;;36.33;28.30;;;;;;;;;;5052226;28;20205;-66
2023/02/09 13:50:50;;;;;;;34.20;28.00;;;;;;;;;;5052787;28;20620;-66
2023/02/09 13:53:20;;;;;;;23.80;21.07;;;;;;;;;;5046624;28;20207;-67
2023/02/09 13:55:49;;;;;;;27.60;24.80;;;;;;;;;;5044576;28;20614;-66
2023/02/09 13:58:20;;;;;;;30.20;24.70;;;;;;;;;;5042166;28;20927;-66
2023/02/09 14:00:50;;;;;;;28.70;25.47;;;;;;;;;;5050155;28;20184;-66
2023/02/09 14:03:20;;;;;;;23.77;21.27;;;;;;;;;;5052600;28;20616;-67
2023/02/09 14:05:50;;;;;;;27.20;23.00;;;;;;;;;;5053124;28;20607;-67
2023/02/09 14:08:19;;;;;;;40.97;32.53;;;;;;;;;;5049588;28;20601;-67
2023/02/09 14:10:49;;;;;;;38.83;34.60;;;;;;;;;;5045560;28;20633;-66
2023/02/09 14:13:20;;;;;;;44.63;35.05;;;;;;;;;;5042300;28;20761;-67
2023/02/09 14:16:06;;;;;;;24.97;21.20;;;;;;;;;;5043712;28;20192;-69
2023/02/09 14:18:45;;;;;;;23.60;21.20;;;;;;;;;;5065260;28;20593;-68
2023/02/09 14:21:21;;;;;;;38.70;30.20;;;;;;;;;;5049832;28;20591;-68
2023/02/09 14:23:50;;;;;;;24.50;21.60;;;;;;;;;;5041149;28;20659;-68
2023/02/09 14:26:21;;;;;;;23.33;20.90;;;;;;;;;;5040645;28;20948;-68
2023/02/09 14:28:51;;;;;;;23.97;21.13;;;;;;;;;;5035334;28;20665;-68
2023/02/09 14:31:22;;;;;;;23.57;21.07;;;;;;;;;;5046132;28;20665;-67
2023/02/09 14:33:51;;;;;;;26.03;22.03;;;;;;;;;;5044630;28;20615;-67
2023/02/09 14:36:24;;;;;;;22.43;20.03;;;;;;;;;;5043930;28;21024;-67
2023/02/09 14:38:53;;;;;;;26.17;22.67;;;;;;;;;;5039590;28;20604;-67
2023/02/09 14:41:30;;;;;;;27.00;21.70;;;;;;;;;;5032870;28;20978;-68
2023/02/09 14:44:01;;;;;;;25.87;22.07;;;;;;;;;;5040130;28;20681;-67
2023/02/09 14:46:46;;;;;;;24.40;21.00;;;;;;;;;;5041386;28;20631;-67
2023/02/09 14:49:14;;;;;;;29.13;22.43;;;;;;;;;;5044468;28;20579;-68
2023/02/09 14:51:43;;;;;;;25.10;21.63;;;;;;;;;;5042838;28;20663;-66
2023/02/09 14:54:17;;;;;;;24.27;21.60;;;;;;;;;;5039477;28;20680;-67